sensor_id;sensor_type;location;lat;lon;timestamp;P1;durP1;ratioP1;P2;durP2;ratioP2
64498;SDS011;51087;55.718;21.122;2023-08-24T00:00:31;4.32;;;2.47;;
64498;SDS011;51087;55.718;21.122;2023-08-24T00:03:00;5.03;;;2.35;;
64498;SDS011;51087;55.718;21.122;2023-08-24T00:05:27;10.65;;;2.92;;
64498;SDS011;51087;55.718;21.122;2023-08-24T00:07:53;9.70;;;3.70;;
64498;SDS011;51087;55.718;21.122;2023-08-24T00:10:18;8.32;;;3.33;;
64498;SDS011;51087;55.718;21.122;2023-08-24T00:12:44;10.05;;;3.83;;
64498;SDS011;51087;55.718;21.122;2023-08-24T00:15:10;8.60;;;3.55;;
64498;SDS011;51087;55.718;21.122;2023-08-24T00:17:36;14.23;;;3.35;;
64498;SDS011;51087;55.718;21.122;2023-08-24T00:20:03;8.85;;;2.83;;
64498;SDS011;51087;55.718;21.122;2023-08-24T00:22:30;7.05;;;3.08;;
64498;SDS011;51087;55.718;21.122;2023-08-24T00:24:55;5.88;;;2.85;;
64498;SDS011;51087;55.718;21.122;2023-08-24T00:27:21;8.52;;;2.45;;
64498;SDS011;51087;55.718;21.122;2023-08-24T00:29:46;4.90;;;2.42;;
64498;SDS011;51087;55.718;21.122;2023-08-24T00:32:11;6.80;;;2.83;;
64498;SDS011;51087;55.718;21.122;2023-08-24T00:34:37;8.43;;;2.75;;
64498;SDS011;51087;55.718;21.122;2023-08-24T00:37:02;8.43;;;3.30;;
64498;SDS011;51087;55.718;21.122;2023-08-24T00:39:28;8.57;;;3.25;;
64498;SDS011;51087;55.718;21.122;2023-08-24T00:41:54;8.68;;;3.60;;
64498;SDS011;51087;55.718;21.122;2023-08-24T00:44:19;8.73;;;3.60;;
64498;SDS011;51087;55.718;21.122;2023-08-24T00:46:45;13.13;;;3.70;;
64498;SDS011;51087;55.718;21.122;2023-08-24T00:49:10;12.65;;;3.90;;
64498;SDS011;51087;55.718;21.122;2023-08-24T00:51:36;7.72;;;3.67;;
64498;SDS011;51087;55.718;21.122;2023-08-24T00:54:02;10.15;;;4.40;;
64498;SDS011;51087;55.718;21.122;2023-08-24T00:56:28;11.10;;;3.42;;
64498;SDS011;51087;55.718;21.122;2023-08-24T00:58:55;7.15;;;3.65;;
64498;SDS011;51087;55.718;21.122;2023-08-24T01:01:21;7.90;;;3.45;;
64498;SDS011;51087;55.718;21.122;2023-08-24T01:03:47;8.32;;;2.97;;
64498;SDS011;51087;55.718;21.122;2023-08-24T01:06:12;6.57;;;3.28;;
64498;SDS011;51087;55.718;21.122;2023-08-24T01:08:38;5.63;;;2.83;;
64498;SDS011;51087;55.718;21.122;2023-08-24T01:13:46;7.72;;;3.72;;
64498;SDS011;51087;55.718;21.122;2023-08-24T01:16:20;9.52;;;4.05;;
64498;SDS011;51087;55.718;21.122;2023-08-24T01:18:57;10.90;;;4.32;;
64498;SDS011;51087;55.718;21.122;2023-08-24T01:21:24;6.93;;;3.25;;
64498;SDS011;51087;55.718;21.122;2023-08-24T01:24:01;8.88;;;3.63;;
64498;SDS011;51087;55.718;21.122;2023-08-24T01:26:33;6.20;;;3.90;;
64498;SDS011;51087;55.718;21.122;2023-08-24T01:28:59;12.82;;;3.75;;
64498;SDS011;51087;55.718;21.122;2023-08-24T01:31:26;4.15;;;2.13;;
64498;SDS011;51087;55.718;21.122;2023-08-24T01:33:51;6.95;;;3.22;;
64498;SDS011;51087;55.718;21.122;2023-08-24T01:36:17;6.97;;;4.03;;
64498;SDS011;51087;55.718;21.122;2023-08-24T01:38:42;8.45;;;3.58;;
64498;SDS011;51087;55.718;21.122;2023-08-24T01:41:12;12.35;;;4.35;;
64498;SDS011;51087;55.718;21.122;2023-08-24T01:44:02;12.30;;;4.15;;
64498;SDS011;51087;55.718;21.122;2023-08-24T01:46:29;9.18;;;4.30;;
64498;SDS011;51087;55.718;21.122;2023-08-24T01:48:56;7.70;;;4.25;;
64498;SDS011;51087;55.718;21.122;2023-08-24T01:51:21;5.95;;;3.90;;
64498;SDS011;51087;55.718;21.122;2023-08-24T01:53:49;10.93;;;4.78;;
64498;SDS011;51087;55.718;21.122;2023-08-24T01:56:16;12.75;;;4.60;;
64498;SDS011;51087;55.718;21.122;2023-08-24T01:58:41;12.10;;;3.92;;
64498;SDS011;51087;55.718;21.122;2023-08-24T02:01:07;9.43;;;3.78;;
64498;SDS011;51087;55.718;21.122;2023-08-24T02:03:33;11.20;;;4.65;;
64498;SDS011;51087;55.718;21.122;2023-08-24T02:05:59;11.10;;;4.40;;
64498;SDS011;51087;55.718;21.122;2023-08-24T02:08:24;6.75;;;3.60;;
64498;SDS011;51087;55.718;21.122;2023-08-24T02:10:50;10.48;;;3.15;;
64498;SDS011;51087;55.718;21.122;2023-08-24T02:13:15;8.73;;;3.95;;
64498;SDS011;51087;55.718;21.122;2023-08-24T02:15:41;5.75;;;3.58;;
64498;SDS011;51087;55.718;21.122;2023-08-24T02:18:07;7.25;;;3.15;;
64498;SDS011;51087;55.718;21.122;2023-08-24T02:20:35;9.48;;;3.67;;
64498;SDS011;51087;55.718;21.122;2023-08-24T02:23:02;9.27;;;3.90;;
64498;SDS011;51087;55.718;21.122;2023-08-24T02:25:27;10.93;;;3.95;;
64498;SDS011;51087;55.718;21.122;2023-08-24T02:27:53;6.75;;;2.67;;
64498;SDS011;51087;55.718;21.122;2023-08-24T02:30:19;7.97;;;3.72;;
64498;SDS011;51087;55.718;21.122;2023-08-24T02:32:44;7.20;;;3.10;;
64498;SDS011;51087;55.718;21.122;2023-08-24T02:35:09;9.25;;;3.85;;
64498;SDS011;51087;55.718;21.122;2023-08-24T02:37:35;7.68;;;3.90;;
64498;SDS011;51087;55.718;21.122;2023-08-24T02:40:00;11.10;;;3.60;;
64498;SDS011;51087;55.718;21.122;2023-08-24T02:42:26;7.40;;;3.85;;
64498;SDS011;51087;55.718;21.122;2023-08-24T02:44:52;10.15;;;3.30;;
64498;SDS011;51087;55.718;21.122;2023-08-24T02:47:17;5.13;;;2.60;;
64498;SDS011;51087;55.718;21.122;2023-08-24T02:49:42;6.88;;;2.78;;
64498;SDS011;51087;55.718;21.122;2023-08-24T02:52:08;4.97;;;2.78;;
64498;SDS011;51087;55.718;21.122;2023-08-24T02:54:33;11.07;;;3.17;;
64498;SDS011;51087;55.718;21.122;2023-08-24T02:56:59;6.88;;;2.88;;
64498;SDS011;51087;55.718;21.122;2023-08-24T02:59:24;8.60;;;2.90;;
64498;SDS011;51087;55.718;21.122;2023-08-24T03:01:51;6.28;;;3.10;;
64498;SDS011;51087;55.718;21.122;2023-08-24T03:04:16;9.32;;;3.13;;
64498;SDS011;51087;55.718;21.122;2023-08-24T03:06:43;8.23;;;3.33;;
64498;SDS011;51087;55.718;21.122;2023-08-24T03:09:09;9.80;;;3.25;;
64498;SDS011;51087;55.718;21.122;2023-08-24T03:11:34;8.45;;;2.90;;
64498;SDS011;51087;55.718;21.122;2023-08-24T03:14:00;9.10;;;2.90;;
64498;SDS011;51087;55.718;21.122;2023-08-24T03:16:25;4.53;;;2.25;;
64498;SDS011;51087;55.718;21.122;2023-08-24T03:18:51;6.40;;;3.20;;
64498;SDS011;51087;55.718;21.122;2023-08-24T03:21:16;6.85;;;2.85;;
64498;SDS011;51087;55.718;21.122;2023-08-24T03:23:42;7.95;;;2.30;;
64498;SDS011;51087;55.718;21.122;2023-08-24T03:26:07;6.10;;;2.83;;
64498;SDS011;51087;55.718;21.122;2023-08-24T03:28:33;11.60;;;3.17;;
64498;SDS011;51087;55.718;21.122;2023-08-24T03:30:58;8.43;;;3.10;;
64498;SDS011;51087;55.718;21.122;2023-08-24T03:33:24;6.97;;;3.05;;
64498;SDS011;51087;55.718;21.122;2023-08-24T03:35:49;7.05;;;2.65;;
64498;SDS011;51087;55.718;21.122;2023-08-24T03:38:14;8.65;;;3.03;;
64498;SDS011;51087;55.718;21.122;2023-08-24T03:40:40;9.90;;;3.00;;
64498;SDS011;51087;55.718;21.122;2023-08-24T03:43:05;7.85;;;3.08;;
64498;SDS011;51087;55.718;21.122;2023-08-24T03:45:31;12.10;;;3.00;;
64498;SDS011;51087;55.718;21.122;2023-08-24T03:47:56;10.07;;;3.03;;
64498;SDS011;51087;55.718;21.122;2023-08-24T03:50:22;3.47;;;1.80;;
64498;SDS011;51087;55.718;21.122;2023-08-24T03:52:48;8.75;;;2.88;;
64498;SDS011;51087;55.718;21.122;2023-08-24T03:55:15;6.70;;;2.90;;
64498;SDS011;51087;55.718;21.122;2023-08-24T03:57:40;5.90;;;2.88;;
64498;SDS011;51087;55.718;21.122;2023-08-24T04:00:06;7.65;;;2.60;;
64498;SDS011;51087;55.718;21.122;2023-08-24T04:02:36;7.22;;;2.38;;
64498;SDS011;51087;55.718;21.122;2023-08-24T04:05:06;5.55;;;2.22;;
64498;SDS011;51087;55.718;21.122;2023-08-24T04:07:31;6.65;;;2.33;;
64498;SDS011;51087;55.718;21.122;2023-08-24T04:09:58;7.05;;;2.20;;
64498;SDS011;51087;55.718;21.122;2023-08-24T04:12:23;4.35;;;2.10;;
64498;SDS011;51087;55.718;21.122;2023-08-24T04:14:49;6.18;;;2.50;;
64498;SDS011;51087;55.718;21.122;2023-08-24T04:17:15;5.47;;;2.22;;
64498;SDS011;51087;55.718;21.122;2023-08-24T04:19:40;6.90;;;2.08;;
64498;SDS011;51087;55.718;21.122;2023-08-24T04:22:05;6.32;;;2.00;;
64498;SDS011;51087;55.718;21.122;2023-08-24T04:24:31;5.45;;;2.20;;
64498;SDS011;51087;55.718;21.122;2023-08-24T04:26:56;7.82;;;1.90;;
64498;SDS011;51087;55.718;21.122;2023-08-24T04:29:22;9.20;;;2.47;;
64498;SDS011;51087;55.718;21.122;2023-08-24T04:31:47;2.83;;;1.25;;
64498;SDS011;51087;55.718;21.122;2023-08-24T04:34:12;5.20;;;1.70;;
64498;SDS011;51087;55.718;21.122;2023-08-24T04:36:38;8.55;;;2.00;;
64498;SDS011;51087;55.718;21.122;2023-08-24T04:39:03;6.22;;;1.77;;
64498;SDS011;51087;55.718;21.122;2023-08-24T04:41:28;6.00;;;1.70;;
64498;SDS011;51087;55.718;21.122;2023-08-24T04:43:54;10.50;;;1.67;;
64498;SDS011;51087;55.718;21.122;2023-08-24T04:46:19;9.70;;;1.90;;
64498;SDS011;51087;55.718;21.122;2023-08-24T04:48:45;8.57;;;1.50;;
64498;SDS011;51087;55.718;21.122;2023-08-24T04:51:10;5.55;;;1.50;;
64498;SDS011;51087;55.718;21.122;2023-08-24T04:53:36;4.40;;;1.58;;
64498;SDS011;51087;55.718;21.122;2023-08-24T04:56:01;4.07;;;1.48;;
64498;SDS011;51087;55.718;21.122;2023-08-24T04:58:26;8.40;;;1.70;;
64498;SDS011;51087;55.718;21.122;2023-08-24T05:00:52;6.53;;;1.35;;
64498;SDS011;51087;55.718;21.122;2023-08-24T05:03:17;6.10;;;1.88;;
64498;SDS011;51087;55.718;21.122;2023-08-24T05:05:44;4.82;;;1.50;;
64498;SDS011;51087;55.718;21.122;2023-08-24T05:08:09;3.38;;;1.60;;
64498;SDS011;51087;55.718;21.122;2023-08-24T05:10:35;6.10;;;1.35;;
64498;SDS011;51087;55.718;21.122;2023-08-24T05:13:01;5.18;;;1.60;;
64498;SDS011;51087;55.718;21.122;2023-08-24T05:15:26;1.50;;;0.98;;
64498;SDS011;51087;55.718;21.122;2023-08-24T05:17:52;5.57;;;1.52;;
64498;SDS011;51087;55.718;21.122;2023-08-24T05:20:20;5.72;;;1.50;;
64498;SDS011;51087;55.718;21.122;2023-08-24T05:22:46;5.22;;;2.05;;
64498;SDS011;51087;55.718;21.122;2023-08-24T05:25:11;13.02;;;3.08;;
64498;SDS011;51087;55.718;21.122;2023-08-24T05:27:37;9.15;;;1.90;;
64498;SDS011;51087;55.718;21.122;2023-08-24T05:30:02;7.35;;;1.70;;
64498;SDS011;51087;55.718;21.122;2023-08-24T05:32:29;9.65;;;1.90;;
64498;SDS011;51087;55.718;21.122;2023-08-24T05:34:54;5.60;;;1.70;;
64498;SDS011;51087;55.718;21.122;2023-08-24T05:37:20;3.83;;;1.20;;
64498;SDS011;51087;55.718;21.122;2023-08-24T05:39:45;3.13;;;1.27;;
64498;SDS011;51087;55.718;21.122;2023-08-24T05:42:10;8.82;;;2.70;;
64498;SDS011;51087;55.718;21.122;2023-08-24T05:44:36;5.80;;;1.90;;
64498;SDS011;51087;55.718;21.122;2023-08-24T05:47:01;6.20;;;1.80;;
64498;SDS011;51087;55.718;21.122;2023-08-24T05:49:26;3.80;;;1.50;;
64498;SDS011;51087;55.718;21.122;2023-08-24T05:51:52;2.63;;;1.23;;
64498;SDS011;51087;55.718;21.122;2023-08-24T05:54:18;5.43;;;1.50;;
64498;SDS011;51087;55.718;21.122;2023-08-24T05:56:47;9.82;;;1.60;;
64498;SDS011;51087;55.718;21.122;2023-08-24T05:59:13;3.97;;;1.70;;
64498;SDS011;51087;55.718;21.122;2023-08-24T06:01:39;8.13;;;2.00;;
64498;SDS011;51087;55.718;21.122;2023-08-24T06:04:06;6.00;;;1.30;;
64498;SDS011;51087;55.718;21.122;2023-08-24T06:06:32;4.88;;;1.70;;
64498;SDS011;51087;55.718;21.122;2023-08-24T06:08:57;4.93;;;2.00;;
64498;SDS011;51087;55.718;21.122;2023-08-24T06:11:23;4.53;;;2.13;;
64498;SDS011;51087;55.718;21.122;2023-08-24T06:13:49;11.93;;;2.20;;
64498;SDS011;51087;55.718;21.122;2023-08-24T06:16:14;12.60;;;2.05;;
64498;SDS011;51087;55.718;21.122;2023-08-24T06:18:40;11.15;;;2.05;;
64498;SDS011;51087;55.718;21.122;2023-08-24T06:21:05;2.47;;;1.33;;
64498;SDS011;51087;55.718;21.122;2023-08-24T06:23:30;3.80;;;1.60;;
64498;SDS011;51087;55.718;21.122;2023-08-24T06:25:56;6.78;;;1.60;;
64498;SDS011;51087;55.718;21.122;2023-08-24T06:28:21;5.47;;;1.55;;
64498;SDS011;51087;55.718;21.122;2023-08-24T06:30:47;3.55;;;1.58;;
64498;SDS011;51087;55.718;21.122;2023-08-24T06:33:13;5.72;;;1.60;;
64498;SDS011;51087;55.718;21.122;2023-08-24T06:35:38;4.40;;;1.42;;
64498;SDS011;51087;55.718;21.122;2023-08-24T06:38:05;7.55;;;1.60;;
64498;SDS011;51087;55.718;21.122;2023-08-24T06:40:31;5.28;;;1.70;;
64498;SDS011;51087;55.718;21.122;2023-08-24T06:42:56;4.18;;;1.60;;
64498;SDS011;51087;55.718;21.122;2023-08-24T06:45:22;5.20;;;1.90;;
64498;SDS011;51087;55.718;21.122;2023-08-24T06:47:47;4.18;;;1.35;;
64498;SDS011;51087;55.718;21.122;2023-08-24T06:50:13;5.80;;;1.42;;
64498;SDS011;51087;55.718;21.122;2023-08-24T06:52:40;4.97;;;1.52;;
64498;SDS011;51087;55.718;21.122;2023-08-24T06:55:06;4.03;;;1.55;;
64498;SDS011;51087;55.718;21.122;2023-08-24T06:57:31;2.90;;;1.50;;
64498;SDS011;51087;55.718;21.122;2023-08-24T06:59:57;3.20;;;1.25;;
64498;SDS011;51087;55.718;21.122;2023-08-24T07:02:22;5.72;;;1.70;;
64498;SDS011;51087;55.718;21.122;2023-08-24T07:04:48;4.32;;;1.83;;
64498;SDS011;51087;55.718;21.122;2023-08-24T07:07:13;9.00;;;1.58;;
64498;SDS011;51087;55.718;21.122;2023-08-24T07:09:39;4.10;;;1.40;;
64498;SDS011;51087;55.718;21.122;2023-08-24T07:12:04;4.53;;;1.70;;
64498;SDS011;51087;55.718;21.122;2023-08-24T07:14:32;12.38;;;1.80;;
64498;SDS011;51087;55.718;21.122;2023-08-24T07:17:00;4.45;;;1.70;;
64498;SDS011;51087;55.718;21.122;2023-08-24T07:19:26;5.78;;;2.00;;
64498;SDS011;51087;55.718;21.122;2023-08-24T07:21:52;8.43;;;1.52;;
64498;SDS011;51087;55.718;21.122;2023-08-24T07:24:17;6.90;;;1.65;;
64498;SDS011;51087;55.718;21.122;2023-08-24T07:26:46;4.65;;;1.50;;
64498;SDS011;51087;55.718;21.122;2023-08-24T07:29:11;10.45;;;1.70;;
64498;SDS011;51087;55.718;21.122;2023-08-24T07:31:37;6.05;;;2.05;;
64498;SDS011;51087;55.718;21.122;2023-08-24T07:34:03;5.15;;;1.73;;
64498;SDS011;51087;55.718;21.122;2023-08-24T07:36:29;2.63;;;1.40;;
64498;SDS011;51087;55.718;21.122;2023-08-24T07:38:55;4.55;;;1.30;;
64498;SDS011;51087;55.718;21.122;2023-08-24T07:41:20;5.97;;;1.30;;
64498;SDS011;51087;55.718;21.122;2023-08-24T07:43:46;7.30;;;1.70;;
64498;SDS011;51087;55.718;21.122;2023-08-24T07:46:11;7.68;;;1.70;;
64498;SDS011;51087;55.718;21.122;2023-08-24T07:48:37;12.00;;;2.00;;
64498;SDS011;51087;55.718;21.122;2023-08-24T07:51:02;6.18;;;1.70;;
64498;SDS011;51087;55.718;21.122;2023-08-24T07:53:28;8.20;;;1.83;;
64498;SDS011;51087;55.718;21.122;2023-08-24T07:55:54;4.90;;;1.50;;
64498;SDS011;51087;55.718;21.122;2023-08-24T07:58:22;6.13;;;1.70;;
64498;SDS011;51087;55.718;21.122;2023-08-24T08:00:51;4.50;;;1.90;;
64498;SDS011;51087;55.718;21.122;2023-08-24T08:03:19;3.67;;;1.50;;
64498;SDS011;51087;55.718;21.122;2023-08-24T08:05:45;3.35;;;1.70;;
64498;SDS011;51087;55.718;21.122;2023-08-24T08:08:15;5.65;;;1.70;;
64498;SDS011;51087;55.718;21.122;2023-08-24T08:10:41;7.97;;;1.77;;
64498;SDS011;51087;55.718;21.122;2023-08-24T08:13:07;7.40;;;1.50;;
64498;SDS011;51087;55.718;21.122;2023-08-24T08:15:32;5.78;;;1.70;;
64498;SDS011;51087;55.718;21.122;2023-08-24T08:17:58;4.68;;;1.33;;
64498;SDS011;51087;55.718;21.122;2023-08-24T08:20:23;4.93;;;1.40;;
64498;SDS011;51087;55.718;21.122;2023-08-24T08:22:49;10.40;;;1.83;;
64498;SDS011;51087;55.718;21.122;2023-08-24T08:25:15;4.90;;;1.30;;
64498;SDS011;51087;55.718;21.122;2023-08-24T08:27:43;4.03;;;1.50;;
64498;SDS011;51087;55.718;21.122;2023-08-24T08:30:08;7.47;;;1.70;;
64498;SDS011;51087;55.718;21.122;2023-08-24T08:32:35;8.50;;;1.98;;
64498;SDS011;51087;55.718;21.122;2023-08-24T08:35:00;4.95;;;2.10;;
64498;SDS011;51087;55.718;21.122;2023-08-24T08:37:26;8.80;;;2.00;;
64498;SDS011;51087;55.718;21.122;2023-08-24T08:39:52;4.85;;;1.45;;
64498;SDS011;51087;55.718;21.122;2023-08-24T08:42:18;4.95;;;1.60;;
64498;SDS011;51087;55.718;21.122;2023-08-24T08:44:45;6.35;;;1.38;;
64498;SDS011;51087;55.718;21.122;2023-08-24T08:47:11;3.65;;;1.65;;
64498;SDS011;51087;55.718;21.122;2023-08-24T08:49:38;6.40;;;1.70;;
64498;SDS011;51087;55.718;21.122;2023-08-24T08:52:05;10.02;;;1.92;;
64498;SDS011;51087;55.718;21.122;2023-08-24T08:54:31;2.67;;;1.50;;
64498;SDS011;51087;55.718;21.122;2023-08-24T08:56:58;3.38;;;1.10;;
64498;SDS011;51087;55.718;21.122;2023-08-24T08:59:24;4.15;;;1.33;;
64498;SDS011;51087;55.718;21.122;2023-08-24T09:02:00;2.63;;;1.40;;
64498;SDS011;51087;55.718;21.122;2023-08-24T09:04:27;3.92;;;1.40;;
64498;SDS011;51087;55.718;21.122;2023-08-24T09:06:55;4.40;;;1.50;;
64498;SDS011;51087;55.718;21.122;2023-08-24T09:09:26;6.88;;;1.60;;
64498;SDS011;51087;55.718;21.122;2023-08-24T09:11:52;6.20;;;1.65;;
64498;SDS011;51087;55.718;21.122;2023-08-24T09:14:18;6.80;;;2.00;;
64498;SDS011;51087;55.718;21.122;2023-08-24T09:16:44;4.20;;;1.40;;
64498;SDS011;51087;55.718;21.122;2023-08-24T09:19:12;3.53;;;1.70;;
64498;SDS011;51087;55.718;21.122;2023-08-24T09:21:39;8.45;;;1.50;;
64498;SDS011;51087;55.718;21.122;2023-08-24T09:24:06;3.08;;;1.42;;
64498;SDS011;51087;55.718;21.122;2023-08-24T09:26:36;6.13;;;1.73;;
64498;SDS011;51087;55.718;21.122;2023-08-24T09:29:13;5.18;;;1.50;;
64498;SDS011;51087;55.718;21.122;2023-08-24T09:31:40;4.03;;;1.35;;
64498;SDS011;51087;55.718;21.122;2023-08-24T09:34:09;5.07;;;1.42;;
64498;SDS011;51087;55.718;21.122;2023-08-24T09:36:35;7.13;;;1.63;;
64498;SDS011;51087;55.718;21.122;2023-08-24T09:39:02;4.85;;;1.63;;
64498;SDS011;51087;55.718;21.122;2023-08-24T09:41:38;15.95;;;1.90;;
64498;SDS011;51087;55.718;21.122;2023-08-24T09:44:11;6.63;;;1.70;;
64498;SDS011;51087;55.718;21.122;2023-08-24T09:46:37;5.35;;;1.58;;
64498;SDS011;51087;55.718;21.122;2023-08-24T09:49:06;3.08;;;1.40;;
64498;SDS011;51087;55.718;21.122;2023-08-24T09:51:36;6.20;;;1.65;;
64498;SDS011;51087;55.718;21.122;2023-08-24T09:54:09;3.38;;;1.27;;
64498;SDS011;51087;55.718;21.122;2023-08-24T09:56:36;4.72;;;1.40;;
64498;SDS011;51087;55.718;21.122;2023-08-24T09:59:16;5.80;;;1.20;;
64498;SDS011;51087;55.718;21.122;2023-08-24T10:01:44;2.47;;;1.50;;
64498;SDS011;51087;55.718;21.122;2023-08-24T10:04:12;3.38;;;1.13;;
64498;SDS011;51087;55.718;21.122;2023-08-24T10:06:39;4.05;;;1.30;;
64498;SDS011;51087;55.718;21.122;2023-08-24T10:09:10;4.32;;;1.60;;
64498;SDS011;51087;55.718;21.122;2023-08-24T10:11:41;1.98;;;1.15;;
64498;SDS011;51087;55.718;21.122;2023-08-24T10:14:15;9.00;;;1.70;;
64498;SDS011;51087;55.718;21.122;2023-08-24T10:16:49;11.05;;;1.40;;
64498;SDS011;51087;55.718;21.122;2023-08-24T10:19:15;5.65;;;1.52;;
64498;SDS011;51087;55.718;21.122;2023-08-24T10:21:42;1.52;;;1.17;;
64498;SDS011;51087;55.718;21.122;2023-08-24T10:24:08;3.85;;;1.35;;
64498;SDS011;51087;55.718;21.122;2023-08-24T10:26:34;5.70;;;1.70;;
64498;SDS011;51087;55.718;21.122;2023-08-24T10:29:02;4.50;;;1.75;;
64498;SDS011;51087;55.718;21.122;2023-08-24T10:31:28;3.92;;;1.40;;
64498;SDS011;51087;55.718;21.122;2023-08-24T10:33:55;9.35;;;1.38;;
64498;SDS011;51087;55.718;21.122;2023-08-24T10:36:23;5.85;;;1.50;;
64498;SDS011;51087;55.718;21.122;2023-08-24T10:38:49;3.30;;;1.33;;
64498;SDS011;51087;55.718;21.122;2023-08-24T10:41:15;9.02;;;1.50;;
64498;SDS011;51087;55.718;21.122;2023-08-24T10:43:40;2.67;;;1.35;;
64498;SDS011;51087;55.718;21.122;2023-08-24T10:46:15;2.83;;;1.15;;
64498;SDS011;51087;55.718;21.122;2023-08-24T10:56:21;4.63;;;1.50;;
64498;SDS011;51087;55.718;21.122;2023-08-24T10:59:09;3.38;;;1.10;;
64498;SDS011;51087;55.718;21.122;2023-08-24T11:01:38;4.20;;;1.20;;
64498;SDS011;51087;55.718;21.122;2023-08-24T11:04:24;3.13;;;1.40;;
64498;SDS011;51087;55.718;21.122;2023-08-24T11:06:54;4.07;;;1.20;;
64498;SDS011;51087;55.718;21.122;2023-08-24T11:09:21;2.53;;;1.10;;
64498;SDS011;51087;55.718;21.122;2023-08-24T11:11:58;2.08;;;1.20;;
64498;SDS011;51087;55.718;21.122;2023-08-24T11:14:25;2.22;;;1.27;;
64498;SDS011;51087;55.718;21.122;2023-08-24T11:16:52;6.93;;;1.63;;
64498;SDS011;51087;55.718;21.122;2023-08-24T11:19:17;5.05;;;1.25;;
64498;SDS011;51087;55.718;21.122;2023-08-24T11:21:44;4.45;;;1.30;;
64498;SDS011;51087;55.718;21.122;2023-08-24T11:24:14;2.15;;;0.90;;
64498;SDS011;51087;55.718;21.122;2023-08-24T11:26:44;4.97;;;1.20;;
64498;SDS011;51087;55.718;21.122;2023-08-24T11:29:11;4.40;;;1.25;;
64498;SDS011;51087;55.718;21.122;2023-08-24T11:31:37;3.88;;;1.40;;
64498;SDS011;51087;55.718;21.122;2023-08-24T11:34:03;8.18;;;1.48;;
64498;SDS011;51087;55.718;21.122;2023-08-24T11:36:30;3.80;;;1.33;;
64498;SDS011;51087;55.718;21.122;2023-08-24T11:38:56;6.50;;;1.27;;
64498;SDS011;51087;55.718;21.122;2023-08-24T11:41:23;16.20;;;1.42;;
64498;SDS011;51087;55.718;21.122;2023-08-24T11:43:49;5.97;;;1.27;;
64498;SDS011;51087;55.718;21.122;2023-08-24T11:46:24;6.05;;;1.35;;
64498;SDS011;51087;55.718;21.122;2023-08-24T11:48:49;3.00;;;1.25;;
64498;SDS011;51087;55.718;21.122;2023-08-24T11:51:15;2.80;;;1.42;;
64498;SDS011;51087;55.718;21.122;2023-08-24T11:53:42;4.13;;;1.10;;
64498;SDS011;51087;55.718;21.122;2023-08-24T11:56:09;4.75;;;1.23;;
64498;SDS011;51087;55.718;21.122;2023-08-24T11:58:41;2.45;;;1.10;;
64498;SDS011;51087;55.718;21.122;2023-08-24T12:01:10;2.80;;;1.20;;
64498;SDS011;51087;55.718;21.122;2023-08-24T12:03:39;11.48;;;1.65;;
64498;SDS011;51087;55.718;21.122;2023-08-24T12:06:14;10.32;;;1.48;;
64498;SDS011;51087;55.718;21.122;2023-08-24T12:08:42;9.57;;;1.55;;
64498;SDS011;51087;55.718;21.122;2023-08-24T12:11:16;3.17;;;1.10;;
64498;SDS011;51087;55.718;21.122;2023-08-24T12:13:45;7.53;;;1.13;;
64498;SDS011;51087;55.718;21.122;2023-08-24T12:16:16;3.70;;;1.10;;
64498;SDS011;51087;55.718;21.122;2023-08-24T12:18:46;3.88;;;1.65;;
64498;SDS011;51087;55.718;21.122;2023-08-24T12:21:22;5.32;;;1.38;;
64498;SDS011;51087;55.718;21.122;2023-08-24T12:26:34;4.28;;;1.15;;
64498;SDS011;51087;55.718;21.122;2023-08-24T12:29:01;1.77;;;1.00;;
64498;SDS011;51087;55.718;21.122;2023-08-24T12:31:29;2.75;;;1.20;;
64498;SDS011;51087;55.718;21.122;2023-08-24T12:34:07;3.45;;;1.40;;
64498;SDS011;51087;55.718;21.122;2023-08-24T12:36:37;3.35;;;1.25;;
64498;SDS011;51087;55.718;21.122;2023-08-24T12:39:04;3.75;;;1.10;;
64498;SDS011;51087;55.718;21.122;2023-08-24T12:41:30;3.17;;;1.40;;
64498;SDS011;51087;55.718;21.122;2023-08-24T12:43:57;2.88;;;1.20;;
64498;SDS011;51087;55.718;21.122;2023-08-24T12:46:23;4.13;;;1.58;;
64498;SDS011;51087;55.718;21.122;2023-08-24T12:48:49;8.73;;;1.27;;
64498;SDS011;51087;55.718;21.122;2023-08-24T12:51:15;7.43;;;1.30;;
64498;SDS011;51087;55.718;21.122;2023-08-24T12:53:41;4.18;;;1.35;;
64498;SDS011;51087;55.718;21.122;2023-08-24T12:56:06;3.33;;;1.10;;
64498;SDS011;51087;55.718;21.122;2023-08-24T12:58:32;3.08;;;1.00;;
64498;SDS011;51087;55.718;21.122;2023-08-24T13:00:57;3.47;;;1.35;;
64498;SDS011;51087;55.718;21.122;2023-08-24T13:03:26;3.53;;;1.52;;
64498;SDS011;51087;55.718;21.122;2023-08-24T13:05:51;2.90;;;1.10;;
64498;SDS011;51087;55.718;21.122;2023-08-24T13:08:17;2.50;;;1.08;;
64498;SDS011;51087;55.718;21.122;2023-08-24T13:10:42;5.38;;;1.02;;
64498;SDS011;51087;55.718;21.122;2023-08-24T13:13:08;2.28;;;0.93;;
64498;SDS011;51087;55.718;21.122;2023-08-24T13:15:34;4.28;;;1.25;;
64498;SDS011;51087;55.718;21.122;2023-08-24T13:17:59;6.07;;;1.35;;
64498;SDS011;51087;55.718;21.122;2023-08-24T13:20:25;5.75;;;1.20;;
64498;SDS011;51087;55.718;21.122;2023-08-24T13:22:51;5.80;;;1.48;;
64498;SDS011;51087;55.718;21.122;2023-08-24T13:25:17;2.80;;;1.00;;
64498;SDS011;51087;55.718;21.122;2023-08-24T13:27:43;5.05;;;1.20;;
64498;SDS011;51087;55.718;21.122;2023-08-24T13:30:08;3.40;;;1.33;;
64498;SDS011;51087;55.718;21.122;2023-08-24T13:32:34;2.78;;;1.15;;
64498;SDS011;51087;55.718;21.122;2023-08-24T13:35:00;3.67;;;1.27;;
64498;SDS011;51087;55.718;21.122;2023-08-24T13:37:26;3.83;;;0.95;;
64498;SDS011;51087;55.718;21.122;2023-08-24T13:39:51;1.17;;;0.80;;
64498;SDS011;51087;55.718;21.122;2023-08-24T13:42:17;2.17;;;0.80;;
64498;SDS011;51087;55.718;21.122;2023-08-24T13:44:43;8.20;;;1.27;;
64498;SDS011;51087;55.718;21.122;2023-08-24T13:47:09;6.65;;;1.00;;
64498;SDS011;51087;55.718;21.122;2023-08-24T13:49:34;4.28;;;1.33;;
64498;SDS011;51087;55.718;21.122;2023-08-24T13:52:00;5.55;;;1.38;;
64498;SDS011;51087;55.718;21.122;2023-08-24T13:54:25;3.08;;;1.30;;
64498;SDS011;51087;55.718;21.122;2023-08-24T13:56:51;5.68;;;1.45;;
64498;SDS011;51087;55.718;21.122;2023-08-24T13:59:18;4.63;;;1.38;;
64498;SDS011;51087;55.718;21.122;2023-08-24T14:01:45;3.40;;;1.35;;
64498;SDS011;51087;55.718;21.122;2023-08-24T14:04:10;4.43;;;1.67;;
64498;SDS011;51087;55.718;21.122;2023-08-24T14:06:36;3.00;;;1.55;;
64498;SDS011;51087;55.718;21.122;2023-08-24T14:09:04;4.70;;;1.80;;
64498;SDS011;51087;55.718;21.122;2023-08-24T14:11:30;3.17;;;1.65;;
64498;SDS011;51087;55.718;21.122;2023-08-24T14:13:57;7.10;;;2.00;;
64498;SDS011;51087;55.718;21.122;2023-08-24T14:16:22;6.07;;;1.90;;
64498;SDS011;51087;55.718;21.122;2023-08-24T14:18:48;4.57;;;1.90;;
64498;SDS011;51087;55.718;21.122;2023-08-24T14:21:14;4.57;;;1.75;;
64498;SDS011;51087;55.718;21.122;2023-08-24T14:23:40;4.78;;;1.98;;
64498;SDS011;51087;55.718;21.122;2023-08-24T14:26:06;10.75;;;2.10;;
64498;SDS011;51087;55.718;21.122;2023-08-24T14:31:13;14.23;;;2.20;;
64498;SDS011;51087;55.718;21.122;2023-08-24T14:33:38;14.43;;;2.60;;
64498;SDS011;51087;55.718;21.122;2023-08-24T14:36:04;7.78;;;2.17;;
64498;SDS011;51087;55.718;21.122;2023-08-24T14:38:29;17.85;;;2.13;;
64498;SDS011;51087;55.718;21.122;2023-08-24T14:40:55;8.68;;;2.17;;
64498;SDS011;51087;55.718;21.122;2023-08-24T14:43:20;8.55;;;1.92;;
64498;SDS011;51087;55.718;21.122;2023-08-24T14:45:46;6.60;;;2.55;;